Astoria, Oregon
Current Conditions -  °F | °C
As of 4:55 AM on Monday 20 Oct 2014 (Local Time) from KAST Reporting Station
Light Rain Light Rain  
Wind Chill: 57°   Ceiling: 6000
Heat Index: 57°   Visibility: 10mi
Dew Point: 54°   Wind: 7mph
Humidity: 89%   Direction: 180°S
Pressure: 29.7"   Gusts: NA
Location:  46.19°N, 123.83°W
Report Text: KAST 201155Z AUTO 18006KT 10SM -RA OVC060 14/12 A2970 RMK AO2 RAE07B55 SLP058 P0000 60012 70038 T01390122 10144 20139 54000
Loading
Personal Weather Stations






























Interactive Weather Map
Tropical Storm Tracking
New forecast layout! Learn more

10-Day Weather Forecast

Advertisements
Track Severe Weather on mobile